createdAt,value
2019-03-31T00:01:20.476Z,7.08
2019-03-31T00:03:48.580Z,6.70
2019-03-31T00:06:16.872Z,7.80
2019-03-31T00:08:44.864Z,7.47
2019-03-31T00:11:13.218Z,6.83
2019-03-31T00:13:41.207Z,7.83
2019-03-31T00:16:09.279Z,7.45
2019-03-31T00:18:37.380Z,7.65
2019-03-31T00:21:05.347Z,6.85
2019-03-31T00:23:33.626Z,8.15
2019-03-31T00:26:01.912Z,8.00
2019-03-31T00:28:30.278Z,6.85
2019-03-31T00:30:58.606Z,7.65
2019-03-31T00:33:26.764Z,8.33
2019-03-31T00:35:54.752Z,8.08
2019-03-31T00:38:22.931Z,8.03
2019-03-31T00:40:50.907Z,8.08
2019-03-31T00:43:19.050Z,6.70
2019-03-31T00:45:47.127Z,7.72
2019-03-31T00:48:15.078Z,9.38
2019-03-31T00:50:42.964Z,7.65
2019-03-31T00:53:10.951Z,7.37
2019-03-31T00:55:38.926Z,8.03
2019-03-31T00:58:06.914Z,8.55
2019-03-31T01:00:53.261Z,7.70
2019-03-31T01:03:21.978Z,8.25
2019-03-31T01:05:50.107Z,8.90
2019-03-31T01:08:18.386Z,7.80
2019-03-31T01:10:46.768Z,7.83
2019-03-31T01:13:16.427Z,8.58
2019-03-31T01:15:44.789Z,8.55
2019-03-31T01:18:13.400Z,8.23
2019-03-31T01:20:41.375Z,7.60
2019-03-31T01:23:09.457Z,7.60
2019-03-31T01:25:37.616Z,8.33
2019-03-31T01:28:05.667Z,8.23
2019-03-31T01:30:33.735Z,8.40
2019-03-31T01:33:02.060Z,8.88
2019-03-31T01:35:30.606Z,9.18
2019-03-31T01:37:58.496Z,7.95
2019-03-31T01:40:26.355Z,8.45
2019-03-31T01:42:54.386Z,7.92
2019-03-31T01:45:22.944Z,7.62
2019-03-31T01:47:51.022Z,8.45
2019-03-31T01:50:19.720Z,8.30
2019-03-31T01:52:47.740Z,8.75
2019-03-31T01:55:16.046Z,7.28
2019-03-31T01:57:44.110Z,10.08
2019-03-31T02:00:25.767Z,8.30
2019-03-31T02:02:53.702Z,8.35
2019-03-31T02:05:21.956Z,8.80
2019-03-31T02:07:50.142Z,9.28
2019-03-31T02:10:18.210Z,8.40
2019-03-31T02:12:46.248Z,8.15
2019-03-31T02:15:14.303Z,8.58
2019-03-31T02:17:42.156Z,9.40
2019-03-31T02:20:10.317Z,8.10
2019-03-31T02:22:38.174Z,8.25
2019-03-31T02:25:06.310Z,9.68
2019-03-31T02:27:34.400Z,8.78
2019-03-31T02:30:02.762Z,9.13
2019-03-31T02:32:30.774Z,9.50
2019-03-31T02:34:58.697Z,9.40
2019-03-31T02:37:26.536Z,7.47
2019-03-31T02:39:54.489Z,9.70
2019-03-31T02:42:22.654Z,9.40
2019-03-31T02:44:50.791Z,7.53
2019-03-31T02:47:19.120Z,8.73
2019-03-31T02:49:47.354Z,8.20
2019-03-31T02:52:15.413Z,9.63
2019-03-31T02:54:43.487Z,8.53
2019-03-31T02:57:11.449Z,8.43
2019-03-31T02:59:40.832Z,8.23
2019-03-31T03:02:10.025Z,9.25
2019-03-31T03:04:39.788Z,9.35
2019-03-31T03:07:09.063Z,8.18
2019-03-31T03:09:38.618Z,8.98
2019-03-31T03:12:08.853Z,8.63
2019-03-31T03:14:37.849Z,8.30
2019-03-31T03:17:06.039Z,10.08
2019-03-31T03:19:34.375Z,9.15
2019-03-31T03:22:02.443Z,8.58
2019-03-31T03:24:30.483Z,9.80
2019-03-31T03:26:58.449Z,9.00
2019-03-31T03:29:26.889Z,8.35
2019-03-31T03:31:54.975Z,9.40
2019-03-31T03:34:22.932Z,8.45
2019-03-31T03:36:51.047Z,9.50
2019-03-31T03:39:19.102Z,10.50
2019-03-31T03:41:47.287Z,9.25
2019-03-31T03:44:15.388Z,8.35
2019-03-31T03:46:43.329Z,10.40
2019-03-31T03:49:11.686Z,9.55
2019-03-31T03:51:40.020Z,10.38
2019-03-31T03:54:08.164Z,8.58
2019-03-31T03:56:36.394Z,8.43
2019-03-31T03:59:04.263Z,8.95
2019-03-31T04:01:32.741Z,9.73
2019-03-31T04:04:00.719Z,8.03
2019-03-31T04:06:28.752Z,9.68
2019-03-31T04:08:56.904Z,9.38
2019-03-31T04:11:27.027Z,8.20
2019-03-31T04:13:54.963Z,9.23
2019-03-31T04:16:22.894Z,8.45
2019-03-31T04:18:50.853Z,9.48
2019-03-31T04:21:18.902Z,9.03
2019-03-31T04:23:46.958Z,9.63
2019-03-31T04:26:14.898Z,9.05
2019-03-31T04:28:42.874Z,9.35
2019-03-31T04:31:10.980Z,9.35
2019-03-31T04:33:50.187Z,8.50
2019-03-31T04:36:08.726Z,7.67
2019-03-31T04:38:37.246Z,9.03
2019-03-31T04:41:05.298Z,9.28
2019-03-31T04:43:33.669Z,9.05
2019-03-31T04:46:01.712Z,8.25
2019-03-31T04:48:29.869Z,8.55
2019-03-31T04:50:57.732Z,8.53
2019-03-31T04:53:25.583Z,8.45
2019-03-31T04:55:53.532Z,8.80
2019-03-31T04:58:21.574Z,8.90
2019-03-31T05:00:49.849Z,7.95
2019-03-31T05:03:17.900Z,8.18
2019-03-31T05:05:46.432Z,8.35
2019-03-31T05:08:14.859Z,7.85
2019-03-31T05:10:43.277Z,8.10
2019-03-31T05:13:11.132Z,8.50
2019-03-31T05:15:39.085Z,8.30
2019-03-31T05:18:07.091Z,9.03
2019-03-31T05:20:35.032Z,7.80
2019-03-31T05:23:03.121Z,8.25
2019-03-31T05:25:31.049Z,7.85
2019-03-31T05:27:59.047Z,8.60
2019-03-31T05:30:27.110Z,8.05
2019-03-31T05:32:55.166Z,7.47
2019-03-31T05:35:23.192Z,7.08
2019-03-31T05:37:51.607Z,8.63
2019-03-31T05:40:19.672Z,7.45
2019-03-31T05:42:47.576Z,7.15
2019-03-31T05:45:15.589Z,6.85
2019-03-31T05:47:43.561Z,8.30
2019-03-31T05:50:11.716Z,8.45
2019-03-31T05:52:39.785Z,7.50
2019-03-31T05:55:07.855Z,9.03
2019-03-31T05:57:35.713Z,7.30
2019-03-31T06:00:04.412Z,7.97
2019-03-31T06:02:32.658Z,8.88
2019-03-31T06:05:00.629Z,9.40
2019-03-31T06:07:28.617Z,6.92
2019-03-31T06:09:56.691Z,8.68
2019-03-31T06:12:24.784Z,8.00
2019-03-31T06:14:52.725Z,9.70
2019-03-31T06:17:20.719Z,7.65
2019-03-31T06:19:48.562Z,8.25
2019-03-31T06:22:16.512Z,8.55
2019-03-31T06:24:44.677Z,8.50
2019-03-31T06:27:15.703Z,8.20
2019-03-31T06:29:42.608Z,8.80
2019-03-31T06:32:10.481Z,9.38
2019-03-31T06:34:47.376Z,8.75
2019-03-31T06:37:08.284Z,8.55
2019-03-31T06:39:36.156Z,9.98
2019-03-31T06:42:04.128Z,8.35
2019-03-31T06:44:32.120Z,10.35
2019-03-31T06:47:00.213Z,8.10
2019-03-31T06:49:28.167Z,9.05
2019-03-31T06:51:56.319Z,8.70
2019-03-31T06:54:24.259Z,8.98
2019-03-31T06:56:52.217Z,9.10
2019-03-31T06:59:20.258Z,9.95
2019-03-31T07:01:48.139Z,8.03
2019-03-31T07:04:16.145Z,9.55
2019-03-31T07:06:44.712Z,10.40
2019-03-31T07:09:12.667Z,9.40
2019-03-31T07:11:40.824Z,9.13
2019-03-31T07:14:08.800Z,9.95
2019-03-31T07:16:36.879Z,8.85
2019-03-31T07:19:04.883Z,9.68
2019-03-31T07:21:32.829Z,8.75
2019-03-31T07:24:00.798Z,10.40
2019-03-31T07:26:28.685Z,9.88
2019-03-31T07:28:56.614Z,8.43
2019-03-31T07:31:24.622Z,9.13
2019-03-31T07:33:52.595Z,10.35
2019-03-31T07:36:21.289Z,9.95
2019-03-31T07:38:49.461Z,9.23
2019-03-31T07:41:17.791Z,9.68
2019-03-31T07:43:46.494Z,9.53
2019-03-31T07:46:14.429Z,10.00
2019-03-31T07:48:42.525Z,9.30
2019-03-31T07:51:10.523Z,9.48
2019-03-31T07:53:38.576Z,9.90
2019-03-31T07:56:06.660Z,9.75
2019-03-31T07:58:34.804Z,9.48
2019-03-31T08:01:02.708Z,10.48
2019-03-31T08:03:30.694Z,11.20
2019-03-31T08:05:59.407Z,9.23
2019-03-31T08:08:27.398Z,10.60
2019-03-31T08:10:55.691Z,12.33
2019-03-31T08:13:23.896Z,11.05
2019-03-31T08:15:51.907Z,10.98
2019-03-31T08:18:19.925Z,10.63
2019-03-31T08:20:47.995Z,10.78
2019-03-31T08:23:16.115Z,11.15
2019-03-31T08:25:44.207Z,11.80
2019-03-31T08:28:12.266Z,11.63
2019-03-31T08:30:40.241Z,11.08
2019-03-31T08:33:08.276Z,11.35
2019-03-31T08:35:46.701Z,11.57
2019-03-31T08:38:06.222Z,10.93
2019-03-31T08:40:42.603Z,10.80
2019-03-31T08:43:10.503Z,11.40
2019-03-31T08:45:38.515Z,10.70
2019-03-31T08:48:06.730Z,11.60
2019-03-31T08:50:35.085Z,11.55
2019-03-31T08:53:03.251Z,11.28
2019-03-31T08:55:31.284Z,12.40
2019-03-31T08:57:59.625Z,11.83
2019-03-31T09:00:34.158Z,11.83
2019-03-31T09:03:02.193Z,12.47
2019-03-31T09:05:30.158Z,10.93
2019-03-31T09:07:58.207Z,11.75
2019-03-31T09:10:26.326Z,11.75
2019-03-31T09:12:54.349Z,12.90
2019-03-31T09:15:22.376Z,11.85
2019-03-31T09:17:53.986Z,12.30
2019-03-31T09:20:20.578Z,11.47
2019-03-31T09:22:49.067Z,12.10
2019-03-31T09:25:17.506Z,11.17
2019-03-31T09:27:45.911Z,10.73
2019-03-31T09:30:16.560Z,13.70
2019-03-31T09:32:44.666Z,11.70
2019-03-31T09:35:12.765Z,12.50
2019-03-31T09:37:41.068Z,12.70
2019-03-31T09:40:09.143Z,11.77
2019-03-31T09:42:37.237Z,12.60
2019-03-31T09:45:07.150Z,11.50
2019-03-31T09:47:35.594Z,12.50
2019-03-31T09:50:05.260Z,13.50
2019-03-31T09:52:33.291Z,12.33
2019-03-31T09:55:01.306Z,12.43
2019-03-31T09:57:29.377Z,14.97
2019-03-31T09:59:57.445Z,13.17
2019-03-31T10:02:25.531Z,12.40
2019-03-31T10:04:53.852Z,13.40
2019-03-31T10:07:23.945Z,12.93
2019-03-31T10:09:52.495Z,13.17
2019-03-31T10:12:20.744Z,11.27
2019-03-31T10:14:48.762Z,13.87
2019-03-31T10:17:17.288Z,12.60
2019-03-31T10:19:45.395Z,14.63
2019-03-31T10:22:13.400Z,13.80
2019-03-31T10:24:41.784Z,12.30
2019-03-31T10:27:09.883Z,12.23
2019-03-31T10:29:38.244Z,12.17
2019-03-31T10:32:06.140Z,13.17
2019-03-31T10:34:34.406Z,12.47
2019-03-31T10:37:02.341Z,12.07
2019-03-31T10:39:32.219Z,11.17
2019-03-31T10:42:00.257Z,13.43
2019-03-31T10:44:28.212Z,12.30
2019-03-31T10:46:58.405Z,11.57
2019-03-31T10:49:26.113Z,12.30
2019-03-31T10:51:54.028Z,11.53
2019-03-31T10:54:22.039Z,10.40
2019-03-31T10:56:50.121Z,11.73
2019-03-31T10:59:18.207Z,12.93
2019-03-31T11:01:46.210Z,9.40
2019-03-31T11:04:14.609Z,8.87
2019-03-31T11:06:42.970Z,8.50
2019-03-31T11:09:11.057Z,9.30
2019-03-31T11:11:39.265Z,9.80
2019-03-31T11:14:07.208Z,8.33
2019-03-31T11:16:35.305Z,8.33
2019-03-31T11:19:04.008Z,9.10
2019-03-31T11:21:47.222Z,8.00
2019-03-31T11:24:15.409Z,8.63
2019-03-31T11:26:43.374Z,8.97
2019-03-31T11:29:11.658Z,8.27
2019-03-31T11:31:39.750Z,8.33
2019-03-31T11:34:07.986Z,8.10
2019-03-31T11:36:35.920Z,10.00
2019-03-31T11:39:05.750Z,8.30
2019-03-31T11:41:34.404Z,9.67
2019-03-31T11:44:02.468Z,8.80
2019-03-31T11:46:30.608Z,9.37
2019-03-31T11:48:58.587Z,8.70
2019-03-31T11:51:26.781Z,9.30
2019-03-31T11:53:55.385Z,9.20
2019-03-31T11:56:23.691Z,8.50
2019-03-31T11:58:51.711Z,9.20
2019-03-31T12:01:19.780Z,8.27
2019-03-31T12:03:47.904Z,7.67
2019-03-31T12:06:15.975Z,8.00
2019-03-31T12:08:43.979Z,7.97
2019-03-31T12:11:12.049Z,9.00
2019-03-31T12:13:40.159Z,8.63
2019-03-31T12:16:08.197Z,8.80
2019-03-31T12:18:36.400Z,8.10
2019-03-31T12:21:05.071Z,7.90
2019-03-31T12:23:33.524Z,7.80
2019-03-31T12:26:01.611Z,8.40
2019-03-31T12:28:30.149Z,8.60
2019-03-31T12:30:58.184Z,8.27
2019-03-31T12:33:26.359Z,9.90
2019-03-31T12:35:54.384Z,7.90
2019-03-31T12:38:22.505Z,7.87
2019-03-31T12:40:50.451Z,8.70
2019-03-31T12:43:18.514Z,8.87
2019-03-31T12:45:46.581Z,8.47
2019-03-31T12:48:14.614Z,8.17
2019-03-31T12:50:42.605Z,7.80
2019-03-31T12:53:11.090Z,7.57
2019-03-31T12:55:39.094Z,6.37
2019-03-31T12:58:07.170Z,7.53
2019-03-31T13:00:35.137Z,7.90
2019-03-31T13:03:03.658Z,7.23
2019-03-31T13:05:31.804Z,7.37
2019-03-31T13:07:59.794Z,6.90
2019-03-31T13:10:27.808Z,7.00
2019-03-31T13:12:56.428Z,6.77
2019-03-31T13:15:24.667Z,6.53
2019-03-31T13:17:52.732Z,6.83
2019-03-31T13:20:20.768Z,6.23
2019-03-31T13:22:48.809Z,7.23
2019-03-31T13:25:17.004Z,8.63
2019-03-31T13:27:44.974Z,7.20
2019-03-31T13:30:13.586Z,8.57
2019-03-31T13:32:41.584Z,7.30
2019-03-31T13:35:09.611Z,8.30
2019-03-31T13:37:37.550Z,7.20
2019-03-31T13:40:05.898Z,8.60
2019-03-31T13:42:34.235Z,6.87
2019-03-31T13:45:02.216Z,6.60
2019-03-31T13:47:30.206Z,6.63
2019-03-31T13:49:58.198Z,7.23
2019-03-31T13:52:26.149Z,8.10
2019-03-31T13:54:54.272Z,7.93
2019-03-31T13:57:22.933Z,8.33
2019-03-31T13:59:51.734Z,8.03
2019-03-31T14:02:19.842Z,9.27
2019-03-31T14:04:51.826Z,8.17
2019-03-31T14:07:17.592Z,7.13
2019-03-31T14:09:45.635Z,6.73
2019-03-31T14:12:13.706Z,8.30
2019-03-31T14:14:42.046Z,7.10
2019-03-31T14:17:10.133Z,7.67
2019-03-31T14:19:38.122Z,7.07
2019-03-31T14:22:06.611Z,7.87
2019-03-31T14:24:34.500Z,8.70
2019-03-31T14:27:02.769Z,8.17
2019-03-31T14:29:33.436Z,7.90
2019-03-31T14:32:01.403Z,7.50
2019-03-31T14:34:29.687Z,16.43
2019-03-31T14:36:57.922Z,10.47
2019-03-31T14:39:25.919Z,7.60
2019-03-31T14:41:53.996Z,7.23
2019-03-31T14:44:21.997Z,7.70
2019-03-31T14:46:50.220Z,34.43
2019-03-31T14:49:18.524Z,9.77
2019-03-31T14:51:46.585Z,8.77
2019-03-31T14:58:23.956Z,8.30
2019-03-31T15:00:52.151Z,8.50
2019-03-31T15:03:20.140Z,7.87
2019-03-31T15:05:48.177Z,8.50
2019-03-31T15:08:16.432Z,27.10
2019-03-31T15:10:44.404Z,7.30
2019-03-31T15:13:12.524Z,8.63
2019-03-31T15:15:41.001Z,7.10
2019-03-31T15:18:09.109Z,7.70
2019-03-31T15:20:37.079Z,17.10
2019-03-31T15:23:05.722Z,7.83
2019-03-31T15:25:33.903Z,8.07
2019-03-31T15:28:01.974Z,8.50
2019-03-31T15:30:30.124Z,8.93
2019-03-31T15:32:58.165Z,7.77
2019-03-31T15:35:26.368Z,7.70
2019-03-31T15:37:54.575Z,8.73
2019-03-31T15:40:22.758Z,6.67
2019-03-31T15:42:51.107Z,7.07
2019-03-31T15:45:19.162Z,7.63
2019-03-31T15:47:47.337Z,7.47
2019-03-31T15:50:16.207Z,7.13
2019-03-31T15:52:44.241Z,7.20
2019-03-31T15:55:13.091Z,7.57
2019-03-31T15:57:41.448Z,6.80
2019-03-31T16:00:10.597Z,7.13
2019-03-31T16:02:38.734Z,5.87
2019-03-31T16:05:07.639Z,7.30
2019-03-31T16:07:35.984Z,7.43
2019-03-31T16:10:04.428Z,6.30
2019-03-31T16:12:32.513Z,7.30
2019-03-31T16:15:00.098Z,7.10
2019-03-31T16:17:28.148Z,7.10
2019-03-31T16:19:55.745Z,7.77
2019-03-31T16:22:24.115Z,7.00
2019-03-31T16:24:53.969Z,7.50
2019-03-31T16:27:21.334Z,7.70
2019-03-31T16:29:49.306Z,7.27
2019-03-31T16:32:16.898Z,7.27
2019-03-31T16:34:44.939Z,7.43
2019-03-31T16:37:12.484Z,7.37
2019-03-31T16:39:40.057Z,7.20
2019-03-31T16:42:07.639Z,7.80
2019-03-31T16:44:35.241Z,7.80
2019-03-31T16:47:02.736Z,7.87
2019-03-31T16:49:30.223Z,7.33
2019-03-31T16:51:58.005Z,7.90
2019-03-31T16:54:25.533Z,7.30
2019-03-31T16:56:53.169Z,7.83
2019-03-31T16:59:21.174Z,8.03
2019-03-31T17:01:48.669Z,7.93
2019-03-31T17:04:16.139Z,7.63
2019-03-31T17:06:43.667Z,8.00
2019-03-31T17:09:11.376Z,7.50
2019-03-31T17:11:39.121Z,8.07
2019-03-31T17:14:06.539Z,7.30
2019-03-31T17:16:34.310Z,8.83
2019-03-31T17:19:02.008Z,8.80
2019-03-31T17:21:29.492Z,8.03
2019-03-31T17:23:57.404Z,8.27
2019-03-31T17:26:24.798Z,8.10
2019-03-31T17:28:52.269Z,7.60
2019-03-31T17:31:20.642Z,8.83
2019-03-31T17:33:48.505Z,6.87
2019-03-31T17:36:16.146Z,7.97
2019-03-31T17:38:43.691Z,7.70
2019-03-31T17:41:11.133Z,8.17
2019-03-31T17:43:38.763Z,8.30
2019-03-31T17:46:06.358Z,7.50
2019-03-31T17:48:34.244Z,7.60
2019-03-31T17:51:02.015Z,8.30
2019-03-31T17:53:29.685Z,8.83
2019-03-31T17:55:57.419Z,7.33
2019-03-31T17:58:25.279Z,6.70
2019-03-31T18:00:53.238Z,8.80
2019-03-31T18:03:20.811Z,7.50
2019-03-31T18:05:48.496Z,7.50
2019-03-31T18:08:16.131Z,7.40
2019-03-31T18:10:43.922Z,8.07
2019-03-31T18:13:12.356Z,7.20
2019-03-31T18:15:40.662Z,6.80
2019-03-31T18:18:08.530Z,6.37
2019-03-31T18:20:36.809Z,7.57
2019-03-31T18:23:04.674Z,6.90
2019-03-31T18:25:32.223Z,7.80
2019-03-31T18:27:59.899Z,8.27
2019-03-31T18:30:27.613Z,6.77
2019-03-31T18:32:55.139Z,6.97
2019-03-31T18:35:22.718Z,7.70
2019-03-31T18:37:50.374Z,7.20
2019-03-31T18:40:18.391Z,7.57
2019-03-31T18:42:46.378Z,7.73
2019-03-31T18:45:14.941Z,7.47
2019-03-31T18:47:42.799Z,7.53
2019-03-31T18:50:10.534Z,6.53
2019-03-31T18:52:38.589Z,7.13
2019-03-31T18:55:19.271Z,7.17
2019-03-31T18:58:09.771Z,7.47
2019-03-31T19:01:06.296Z,6.97
2019-03-31T19:04:03.211Z,7.63
2019-03-31T19:06:42.011Z,6.93
2019-03-31T19:09:44.883Z,7.77
2019-03-31T19:12:38.621Z,7.70
2019-03-31T19:15:24.892Z,7.43
2019-03-31T19:18:19.202Z,6.90
2019-03-31T19:21:10.918Z,6.70
2019-03-31T19:24:10.646Z,7.63
2019-03-31T19:27:00.463Z,6.90
2019-03-31T19:29:56.583Z,6.83
2019-03-31T19:32:55.681Z,6.57
2019-03-31T19:35:38.318Z,7.53
2019-03-31T19:38:28.757Z,7.27
2019-03-31T19:41:18.841Z,7.30
2019-03-31T19:44:01.208Z,7.07
2019-03-31T19:46:52.952Z,7.50
2019-03-31T19:49:40.080Z,7.13
2019-03-31T19:52:29.874Z,8.00
2019-03-31T19:55:17.053Z,7.27
2019-03-31T19:58:10.986Z,6.77
2019-03-31T20:00:47.412Z,6.80
2019-03-31T20:03:37.710Z,7.50
2019-03-31T20:06:28.634Z,7.50
2019-03-31T20:09:25.238Z,6.50
2019-03-31T20:12:15.236Z,6.90
2019-03-31T20:15:03.642Z,6.10
2019-03-31T20:17:41.033Z,7.35
2019-03-31T20:20:28.202Z,7.25
2019-03-31T20:23:14.095Z,6.62
2019-03-31T20:26:13.305Z,6.22
2019-03-31T20:28:55.686Z,6.65
2019-03-31T20:31:43.068Z,7.87
2019-03-31T20:34:30.072Z,7.67
2019-03-31T20:37:16.195Z,6.97
2019-03-31T20:39:56.502Z,6.97
2019-03-31T20:42:34.911Z,7.37
2019-03-31T20:45:02.412Z,7.00
2019-03-31T20:47:30.122Z,7.37
2019-03-31T20:49:57.893Z,6.85
2019-03-31T20:52:25.363Z,7.28
2019-03-31T20:54:52.974Z,7.08
2019-03-31T20:57:20.676Z,7.20
2019-03-31T20:59:48.660Z,8.33
2019-03-31T21:02:16.575Z,7.78
2019-03-31T21:04:44.055Z,7.85
2019-03-31T21:07:11.448Z,7.60
2019-03-31T21:09:45.163Z,7.25
2019-03-31T21:12:08.450Z,7.80
2019-03-31T21:14:36.027Z,7.85
2019-03-31T21:17:03.466Z,8.65
2019-03-31T21:19:30.966Z,7.90
2019-03-31T21:21:58.643Z,7.83
2019-03-31T21:24:26.114Z,8.98
2019-03-31T21:26:53.670Z,8.25
2019-03-31T21:29:21.027Z,8.30
2019-03-31T21:31:48.394Z,8.25
2019-03-31T21:34:15.830Z,9.20
2019-03-31T21:36:43.327Z,7.80
2019-03-31T21:39:10.795Z,8.25
2019-03-31T21:41:38.262Z,9.53
2019-03-31T21:44:05.709Z,8.58
2019-03-31T21:46:33.149Z,7.67
2019-03-31T21:49:00.591Z,8.43
2019-03-31T21:51:27.933Z,8.28
2019-03-31T21:53:55.257Z,8.80
2019-03-31T21:56:22.714Z,9.15
2019-03-31T21:58:50.263Z,9.13
2019-03-31T22:01:18.045Z,9.00
2019-03-31T22:03:45.767Z,9.28
2019-03-31T22:06:13.150Z,10.08
2019-03-31T22:08:40.680Z,9.70
2019-03-31T22:11:08.106Z,10.10
2019-03-31T22:13:35.516Z,10.55
2019-03-31T22:16:02.853Z,10.70
2019-03-31T22:18:30.214Z,10.00
2019-03-31T22:20:57.966Z,11.35
2019-03-31T22:23:25.286Z,11.95
2019-03-31T22:25:52.631Z,10.58
2019-03-31T22:28:20.079Z,11.88
2019-03-31T22:30:47.442Z,12.30
2019-03-31T22:33:15.190Z,11.95
2019-03-31T22:36:02.059Z,13.05
2019-03-31T22:38:29.470Z,12.15
2019-03-31T22:40:57.114Z,12.40
2019-03-31T22:43:24.648Z,13.13
2019-03-31T22:45:52.344Z,13.05
2019-03-31T22:48:19.680Z,13.88
2019-03-31T22:50:47.123Z,14.50
2019-03-31T22:53:14.530Z,14.58
2019-03-31T22:55:41.863Z,13.50
2019-03-31T22:58:09.279Z,13.75
2019-03-31T23:00:36.699Z,14.33
2019-03-31T23:03:04.080Z,15.80
2019-03-31T23:05:31.481Z,15.40
2019-03-31T23:07:58.801Z,15.72
2019-03-31T23:10:26.222Z,15.15
2019-03-31T23:12:53.799Z,16.62
2019-03-31T23:15:21.574Z,18.10
2019-03-31T23:17:48.876Z,17.50
2019-03-31T23:20:16.494Z,16.82
2019-03-31T23:22:43.923Z,18.32
2019-03-31T23:25:11.328Z,17.45
2019-03-31T23:27:38.790Z,17.65
2019-03-31T23:30:08.784Z,18.05
2019-03-31T23:32:36.178Z,20.27
2019-03-31T23:35:04.293Z,19.32
2019-03-31T23:37:31.807Z,19.15
2019-03-31T23:39:59.311Z,19.32
2019-03-31T23:42:27.117Z,19.57
2019-03-31T23:44:54.443Z,19.40
2019-03-31T23:47:21.864Z,18.27
2019-03-31T23:49:49.575Z,18.20
2019-03-31T23:52:16.928Z,22.00
2019-03-31T23:54:44.326Z,19.48
2019-03-31T23:57:11.647Z,22.55
2019-03-31T23:59:39.059Z,20.48
